createdAt,value
2022-09-12T00:00:23.139Z,1.90
2022-09-12T00:02:54.328Z,1.70
2022-09-12T00:05:22.494Z,1.70
2022-09-12T00:07:50.248Z,1.50
2022-09-12T00:10:17.836Z,1.80
2022-09-12T00:12:45.216Z,1.80
2022-09-12T00:15:12.631Z,2.03
2022-09-12T00:17:40.296Z,1.60
2022-09-12T00:20:09.243Z,1.80
2022-09-12T00:22:38.025Z,1.50
2022-09-12T00:25:05.683Z,1.70
2022-09-12T00:27:32.990Z,1.70
2022-09-12T00:30:00.267Z,1.97
2022-09-12T00:32:27.614Z,2.23
2022-09-12T00:34:54.889Z,1.93
2022-09-12T00:37:22.216Z,2.13
2022-09-12T00:39:49.592Z,2.20
2022-09-12T00:42:16.881Z,2.00
2022-09-12T00:44:45.839Z,3.43
2022-09-12T00:47:30.118Z,2.53
2022-09-12T00:50:15.929Z,2.20
2022-09-12T00:52:47.407Z,2.53
2022-09-12T00:55:20.405Z,2.57
2022-09-12T00:57:53.481Z,2.20
2022-09-12T01:00:23.184Z,3.93
2022-09-12T01:02:52.967Z,4.90
2022-09-12T01:05:20.938Z,4.60
2022-09-12T01:07:50.115Z,5.60
2022-09-12T01:10:17.416Z,3.23
2022-09-12T01:12:44.995Z,4.40
2022-09-12T01:15:12.407Z,2.37
2022-09-12T01:17:58.199Z,3.93
2022-09-12T01:20:36.158Z,4.37
2022-09-12T01:23:07.490Z,3.93
2022-09-12T01:25:49.965Z,2.80
2022-09-12T01:28:20.282Z,6.80
2022-09-12T01:30:55.914Z,4.00
2022-09-12T01:33:33.632Z,2.63
2022-09-12T01:36:00.885Z,5.43
2022-09-12T01:38:36.296Z,3.10
2022-09-12T01:41:06.603Z,4.10
2022-09-12T01:43:37.844Z,4.87
2022-09-12T01:46:07.995Z,3.13
2022-09-12T01:48:54.324Z,3.07
2022-09-12T01:51:27.366Z,3.23
2022-09-12T01:54:01.195Z,3.53
2022-09-12T01:56:30.279Z,2.90
2022-09-12T01:59:06.177Z,2.27
2022-09-12T02:01:34.616Z,2.77
2022-09-12T02:04:34.222Z,3.93
2022-09-12T02:07:07.587Z,3.07
2022-09-12T02:09:37.498Z,3.93
2022-09-12T02:12:05.598Z,4.43
2022-09-12T02:14:34.667Z,4.83
2022-09-12T02:17:07.470Z,5.73
2022-09-12T02:19:37.358Z,4.57
2022-09-12T02:22:05.747Z,3.53
2022-09-12T02:24:36.560Z,4.07
2022-09-12T02:27:24.139Z,3.30
2022-09-12T02:29:51.657Z,3.73
2022-09-12T02:32:26.389Z,4.40
2022-09-12T02:34:59.652Z,4.37
2022-09-12T02:37:51.956Z,4.43
2022-09-12T02:40:19.381Z,3.53
2022-09-12T02:42:46.918Z,4.80
2022-09-12T02:45:14.386Z,3.40
2022-09-12T02:48:07.737Z,3.17
2022-09-12T02:50:35.231Z,5.27
2022-09-12T02:53:05.020Z,3.83
2022-09-12T02:55:33.610Z,2.70
2022-09-12T02:58:02.381Z,2.70
2022-09-12T03:00:32.616Z,3.77
2022-09-12T03:03:22.336Z,3.63
2022-09-12T03:06:00.679Z,4.10
2022-09-12T03:08:46.149Z,3.90
2022-09-12T03:11:19.483Z,2.80
2022-09-12T03:13:52.903Z,5.10
2022-09-12T03:16:20.219Z,2.67
2022-09-12T03:18:59.224Z,2.80
2022-09-12T03:21:36.623Z,3.23
2022-09-12T03:24:31.018Z,3.37
2022-09-12T03:27:01.323Z,5.10
2022-09-12T03:29:29.006Z,4.77
2022-09-12T03:31:57.279Z,6.53
2022-09-12T03:34:25.568Z,3.10
2022-09-12T03:36:55.305Z,5.57
2022-09-12T03:39:24.489Z,4.33
2022-09-12T03:41:52.242Z,4.60
2022-09-12T03:44:20.101Z,3.20
2022-09-12T03:46:47.533Z,2.90
2022-09-12T03:49:14.970Z,5.90
2022-09-12T03:51:43.215Z,5.00
2022-09-12T03:54:10.792Z,4.57
2022-09-12T03:56:39.207Z,5.47
2022-09-12T03:59:07.095Z,3.03
2022-09-12T04:01:34.434Z,5.87
2022-09-12T04:04:01.962Z,4.53
2022-09-12T04:06:29.753Z,3.17
2022-09-12T04:08:57.091Z,2.70
2022-09-12T04:11:24.431Z,3.17
2022-09-12T04:13:51.856Z,3.83
2022-09-12T04:16:19.618Z,4.20
2022-09-12T04:18:47.405Z,6.10
2022-09-12T04:21:16.657Z,4.17
2022-09-12T04:23:44.243Z,4.23
2022-09-12T04:26:13.671Z,3.33
2022-09-12T04:28:41.477Z,4.37
2022-09-12T04:31:20.048Z,4.20
2022-09-12T04:33:47.760Z,2.67
2022-09-12T04:36:16.717Z,3.30
2022-09-12T04:38:45.303Z,3.40
2022-09-12T04:41:19.618Z,3.10
2022-09-12T04:43:47.760Z,3.03
2022-09-12T04:46:16.624Z,3.67
2022-09-12T04:48:44.469Z,4.30
2022-09-12T04:51:13.645Z,4.23
2022-09-12T04:53:41.081Z,4.70
2022-09-12T04:56:09.839Z,3.93
2022-09-12T04:58:37.714Z,3.23
2022-09-12T05:01:08.992Z,5.23
2022-09-12T05:03:39.024Z,3.03
2022-09-12T05:06:08.014Z,4.63
2022-09-12T05:08:35.935Z,2.30
2022-09-12T05:11:05.063Z,7.03
2022-09-12T05:13:32.989Z,4.83
2022-09-12T05:16:01.329Z,3.47
2022-09-12T05:18:29.168Z,5.27
2022-09-12T05:20:56.446Z,3.33
2022-09-12T05:23:24.805Z,2.97
2022-09-12T05:25:52.998Z,3.83
2022-09-12T05:28:21.090Z,5.33
2022-09-12T05:30:48.829Z,6.43
2022-09-12T05:33:16.249Z,4.23
2022-09-12T05:35:43.524Z,4.40
2022-09-12T05:38:10.798Z,4.83
2022-09-12T05:40:38.043Z,3.90
2022-09-12T05:43:05.325Z,4.70
2022-09-12T05:45:32.634Z,4.93
2022-09-12T05:47:59.915Z,3.67
2022-09-12T05:50:27.165Z,8.43
2022-09-12T05:52:55.001Z,5.23
2022-09-12T05:55:23.087Z,6.70
2022-09-12T05:57:50.793Z,3.20
2022-09-12T06:00:20.609Z,4.97
2022-09-12T06:02:54.113Z,5.20
2022-09-12T06:05:21.400Z,4.70
2022-09-12T06:07:48.670Z,6.30
2022-09-12T06:10:16.121Z,6.27
2022-09-12T06:12:43.716Z,6.13
2022-09-12T06:15:11.575Z,3.57
2022-09-12T06:17:38.863Z,5.63
2022-09-12T06:20:06.362Z,4.60
2022-09-12T06:22:33.687Z,5.17
2022-09-12T06:25:00.967Z,3.47
2022-09-12T06:27:28.863Z,5.83
2022-09-12T06:29:56.701Z,4.23
2022-09-12T06:32:23.972Z,4.37
2022-09-12T06:34:51.959Z,4.73
2022-09-12T06:37:19.852Z,5.68
2022-09-12T06:39:48.639Z,4.53
2022-09-12T06:42:16.654Z,3.83
2022-09-12T06:44:52.109Z,6.90
2022-09-12T06:47:19.445Z,7.00
2022-09-12T06:49:46.738Z,4.80
2022-09-12T06:52:14.043Z,6.87
2022-09-12T06:54:42.162Z,4.33
2022-09-12T06:57:09.447Z,4.23
2022-09-12T06:59:36.756Z,4.37
2022-09-12T07:02:04.105Z,5.07
2022-09-12T07:04:33.630Z,3.17
2022-09-12T07:07:01.246Z,4.00
2022-09-12T07:09:30.722Z,4.90
2022-09-12T07:11:58.063Z,5.60
2022-09-12T07:14:26.087Z,4.80
2022-09-12T07:16:53.434Z,3.83
2022-09-12T07:19:20.726Z,5.10
2022-09-12T07:21:48.000Z,4.93
2022-09-12T07:24:15.295Z,5.13
2022-09-12T07:26:44.062Z,5.00
2022-09-12T07:29:35.790Z,4.77
2022-09-12T07:32:04.208Z,5.00
2022-09-12T07:34:31.465Z,4.73
2022-09-12T07:36:58.754Z,5.90
2022-09-12T07:39:26.076Z,5.60
2022-09-12T07:41:53.466Z,6.67
2022-09-12T07:44:22.002Z,6.50
2022-09-12T07:46:50.699Z,4.93
2022-09-12T07:49:17.959Z,7.43
2022-09-12T07:51:45.663Z,6.07
2022-09-12T07:54:12.974Z,6.13
2022-09-12T07:56:40.820Z,6.83
2022-09-12T07:59:08.762Z,6.27
2022-09-12T08:01:36.298Z,5.30
2022-09-12T08:04:05.149Z,3.63
2022-09-12T08:06:33.811Z,3.83
2022-09-12T08:09:01.846Z,5.53
2022-09-12T08:11:30.003Z,5.47
2022-09-12T08:13:58.336Z,5.77
2022-09-12T08:16:26.763Z,5.20
2022-09-12T08:18:54.055Z,5.50
2022-09-12T08:21:22.586Z,5.93
2022-09-12T08:23:54.326Z,6.43
2022-09-12T08:26:21.842Z,8.53
2022-09-12T08:28:49.175Z,4.93
2022-09-12T08:31:17.673Z,6.10
2022-09-12T08:33:45.134Z,5.13
2022-09-12T08:36:16.831Z,7.57
2022-09-12T08:38:45.271Z,6.40
2022-09-12T08:41:31.264Z,7.47
2022-09-12T08:44:09.731Z,6.77
2022-09-12T08:46:44.726Z,5.27
2022-09-12T08:49:13.718Z,4.57
2022-09-12T08:51:41.370Z,6.67
2022-09-12T08:54:15.390Z,6.83
2022-09-12T08:56:42.807Z,5.80
2022-09-12T08:59:10.487Z,5.07
2022-09-12T09:01:41.872Z,6.70
2022-09-12T09:04:15.343Z,5.23
2022-09-12T09:07:01.547Z,7.30
2022-09-12T09:09:48.810Z,5.00
2022-09-12T09:12:34.831Z,4.03
2022-09-12T09:15:02.121Z,6.60
2022-09-12T09:17:35.174Z,5.90
2022-09-12T09:20:30.151Z,5.40
2022-09-12T09:23:06.394Z,4.67
2022-09-12T09:25:46.670Z,4.00
2022-09-12T09:28:26.325Z,5.43
2022-09-12T09:30:53.740Z,4.83
2022-09-12T09:33:25.087Z,4.90
2022-09-12T09:35:57.426Z,4.83
2022-09-12T09:38:26.147Z,4.03
2022-09-12T09:41:02.307Z,3.70
2022-09-12T09:43:29.812Z,6.07
2022-09-12T09:45:57.681Z,6.63
2022-09-12T09:48:45.367Z,4.33
2022-09-12T09:51:12.644Z,4.50
2022-09-12T09:54:01.378Z,5.43
2022-09-12T09:56:28.667Z,5.73
2022-09-12T09:58:56.083Z,4.97
2022-09-12T10:01:23.570Z,4.80
2022-09-12T10:03:52.482Z,4.33
2022-09-12T10:06:24.124Z,3.80
2022-09-12T10:08:51.638Z,3.50
2022-09-12T10:11:20.221Z,4.20
2022-09-12T10:13:54.845Z,4.83
2022-09-12T10:16:27.793Z,2.90
2022-09-12T10:19:02.298Z,3.33
2022-09-12T10:22:00.872Z,3.07
2022-09-12T10:24:31.423Z,4.10
2022-09-12T10:27:14.327Z,4.27
2022-09-12T10:30:04.680Z,2.70
2022-09-12T10:32:42.940Z,3.40
2022-09-12T10:35:21.090Z,3.63
2022-09-12T10:38:00.708Z,2.93
2022-09-12T10:40:29.080Z,2.40
2022-09-12T10:42:59.854Z,4.63
2022-09-12T10:45:32.013Z,3.17
2022-09-12T10:48:05.512Z,2.73
2022-09-12T10:50:43.681Z,3.03
2022-09-12T10:53:15.652Z,2.70
2022-09-12T10:55:48.819Z,2.90
2022-09-12T10:58:26.199Z,2.50
2022-09-12T11:00:59.542Z,2.63
2022-09-12T11:03:52.965Z,2.83
2022-09-12T11:06:23.107Z,2.60
2022-09-12T11:08:50.531Z,2.20
2022-09-12T11:11:26.615Z,2.27
2022-09-12T11:13:59.925Z,2.33
2022-09-12T11:16:40.227Z,2.47
2022-09-12T11:19:25.206Z,3.13
2022-09-12T11:22:10.684Z,2.57
2022-09-12T11:24:58.214Z,2.27
2022-09-12T11:27:26.688Z,3.30
2022-09-12T11:30:02.577Z,2.70
2022-09-12T11:32:48.731Z,1.80
2022-09-12T11:35:17.704Z,3.27
2022-09-12T11:38:00.532Z,2.57
2022-09-12T11:40:50.018Z,4.07
2022-09-12T11:43:24.159Z,3.03
2022-09-12T11:45:51.785Z,2.23
2022-09-12T11:48:24.916Z,2.40
2022-09-12T11:50:52.501Z,1.80
2022-09-12T11:53:23.474Z,1.70
2022-09-12T11:56:02.937Z,2.30
2022-09-12T11:58:30.445Z,3.03
2022-09-12T12:01:02.374Z,2.00
2022-09-12T12:03:43.637Z,2.00
2022-09-12T12:06:27.503Z,2.00
2022-09-12T12:08:54.969Z,2.00
2022-09-12T12:11:31.247Z,2.43
2022-09-12T12:14:04.551Z,2.33
2022-09-12T12:16:37.737Z,2.20
2022-09-12T12:19:24.155Z,2.20
2022-09-12T12:21:52.061Z,2.60
2022-09-12T12:24:26.643Z,1.93
2022-09-12T12:26:54.863Z,2.40
2022-09-12T12:29:22.134Z,3.33
2022-09-12T12:32:04.694Z,1.80
2022-09-12T12:34:36.068Z,2.10
2022-09-12T12:37:21.578Z,1.97
2022-09-12T12:39:49.952Z,2.30
2022-09-12T12:42:35.575Z,1.83
2022-09-12T12:45:18.148Z,1.90
2022-09-12T12:47:47.460Z,2.17
2022-09-12T12:50:19.237Z,1.43
2022-09-12T12:52:46.586Z,1.87
2022-09-12T12:55:27.446Z,2.17
2022-09-12T12:57:55.591Z,1.97
2022-09-12T13:00:26.331Z,2.00
2022-09-12T13:03:08.068Z,2.20
2022-09-12T13:05:43.368Z,1.70
2022-09-12T13:08:19.874Z,1.50
2022-09-12T13:10:51.827Z,1.87
2022-09-12T13:13:26.251Z,1.80
2022-09-12T13:15:53.808Z,2.17
2022-09-12T13:18:27.804Z,2.13
2022-09-12T13:21:04.536Z,1.70
2022-09-12T13:23:32.874Z,1.70
2022-09-12T13:26:01.495Z,1.77
2022-09-12T13:28:29.496Z,1.40
2022-09-12T13:30:59.958Z,1.60
2022-09-12T13:33:33.218Z,2.97
2022-09-12T13:36:09.921Z,1.87
2022-09-12T13:38:37.243Z,1.83
2022-09-12T13:41:25.230Z,1.80
2022-09-12T13:43:52.898Z,1.50
2022-09-12T13:46:24.985Z,2.00
2022-09-12T13:48:52.381Z,1.57
2022-09-12T13:51:28.443Z,2.10
2022-09-12T13:53:58.267Z,1.70
2022-09-12T13:56:25.571Z,1.27
2022-09-12T13:58:54.767Z,1.80
2022-09-12T14:01:22.799Z,1.93
2022-09-12T14:04:10.291Z,1.63
2022-09-12T14:06:49.676Z,1.40
2022-09-12T14:09:25.156Z,1.60
2022-09-12T14:11:53.716Z,2.20
2022-09-12T14:14:27.331Z,1.70
2022-09-12T14:16:54.806Z,1.70
2022-09-12T14:19:25.217Z,1.70
2022-09-12T14:21:53.357Z,1.47
2022-09-12T14:24:24.301Z,1.80
2022-09-12T14:26:52.915Z,1.60
2022-09-12T14:29:21.973Z,1.70
2022-09-12T14:32:00.527Z,1.20
2022-09-12T14:34:28.048Z,1.50
2022-09-12T14:36:56.347Z,2.70
2022-09-12T14:39:34.427Z,1.50
2022-09-12T14:42:28.274Z,1.87
2022-09-12T14:45:01.069Z,1.73
2022-09-12T14:47:29.237Z,2.17
2022-09-12T14:49:56.548Z,2.63
2022-09-12T14:52:31.078Z,1.50
2022-09-12T14:55:01.387Z,1.57
2022-09-12T14:57:28.638Z,1.57
2022-09-12T15:00:05.909Z,2.00
2022-09-12T15:02:34.578Z,1.57
2022-09-12T15:05:05.020Z,1.70
2022-09-12T15:07:34.782Z,1.40
2022-09-12T15:10:06.835Z,1.70
2022-09-12T15:12:34.128Z,1.40
2022-09-12T15:15:04.073Z,1.53
2022-09-12T15:17:31.494Z,1.50
2022-09-12T15:19:58.801Z,1.33
2022-09-12T15:22:26.232Z,2.33
2022-09-12T15:24:53.513Z,1.40
2022-09-12T15:27:20.779Z,1.60
2022-09-12T15:29:48.071Z,1.30
2022-09-12T15:32:23.169Z,1.50
2022-09-12T15:34:50.450Z,1.73
2022-09-12T15:37:18.011Z,2.13
2022-09-12T15:39:46.655Z,1.37
2022-09-12T15:42:15.221Z,1.60
2022-09-12T15:44:42.745Z,1.97
2022-09-12T15:47:14.095Z,1.40
2022-09-12T15:49:41.645Z,2.13
2022-09-12T15:52:14.565Z,1.20
2022-09-12T15:54:41.848Z,1.40
2022-09-12T15:57:09.642Z,1.37
2022-09-12T15:59:37.159Z,1.10
2022-09-12T16:02:04.492Z,1.43
2022-09-12T16:04:32.158Z,1.50
2022-09-12T16:06:59.659Z,1.67
2022-09-12T16:09:27.040Z,1.50
2022-09-12T16:11:54.451Z,1.63
2022-09-12T16:14:21.891Z,1.77
2022-09-12T16:16:53.789Z,1.63
2022-09-12T16:19:21.494Z,3.10
2022-09-12T16:21:49.098Z,1.60
2022-09-12T16:24:16.446Z,1.57
2022-09-12T16:26:43.831Z,1.63
2022-09-12T16:29:13.339Z,1.77
2022-09-12T16:31:40.662Z,1.40
2022-09-12T16:34:08.462Z,1.50
2022-09-12T16:36:35.744Z,1.40
2022-09-12T16:39:03.022Z,1.40
2022-09-12T16:41:30.343Z,1.40
2022-09-12T16:43:57.642Z,1.43
2022-09-12T16:46:26.211Z,1.47
2022-09-12T16:48:54.470Z,1.70
2022-09-12T16:51:24.402Z,1.77
2022-09-12T16:53:51.757Z,1.80
2022-09-12T16:56:19.081Z,1.60
2022-09-12T16:58:46.842Z,1.57
2022-09-12T17:01:15.779Z,1.63
2022-09-12T17:03:43.676Z,1.50
2022-09-12T17:06:16.130Z,1.77
2022-09-12T17:08:44.715Z,1.07
2022-09-12T17:11:13.421Z,1.40
2022-09-12T17:14:03.372Z,1.50
2022-09-12T17:16:28.598Z,1.17
2022-09-12T17:18:56.040Z,1.50
2022-09-12T17:21:23.436Z,1.30
2022-09-12T17:23:51.192Z,1.43
2022-09-12T17:26:18.473Z,1.33
2022-09-12T17:28:46.038Z,1.50
2022-09-12T17:31:14.569Z,1.60
2022-09-12T17:33:42.499Z,1.50
2022-09-12T17:36:15.298Z,1.67
2022-09-12T17:38:43.127Z,1.50
2022-09-12T17:41:15.017Z,1.40
2022-09-12T17:43:42.753Z,1.43
2022-09-12T17:46:10.464Z,1.47
2022-09-12T17:48:37.784Z,1.40
2022-09-12T17:51:11.945Z,1.60
2022-09-12T17:53:39.237Z,1.47
2022-09-12T17:56:07.334Z,1.40
2022-09-12T17:58:35.031Z,1.77
2022-09-12T18:01:24.694Z,1.40
2022-09-12T18:03:55.974Z,1.50
2022-09-12T18:06:23.785Z,1.40
2022-09-12T18:08:51.188Z,1.27
2022-09-12T18:11:18.526Z,2.03
2022-09-12T18:13:45.988Z,1.70
2022-09-12T18:16:14.687Z,1.37
2022-09-12T18:18:42.170Z,1.43
2022-09-12T18:21:10.945Z,1.70
2022-09-12T18:23:38.329Z,1.30
2022-09-12T18:26:07.229Z,1.43
2022-09-12T18:28:38.546Z,1.60
2022-09-12T18:31:09.989Z,1.70
2022-09-12T18:33:37.964Z,1.40
2022-09-12T18:36:05.766Z,1.73
2022-09-12T18:38:33.235Z,1.73
2022-09-12T18:41:04.547Z,1.43
2022-09-12T18:43:31.847Z,1.47
2022-09-12T18:46:03.210Z,1.60
2022-09-12T18:48:31.559Z,1.30
2022-09-12T18:51:12.265Z,1.43
2022-09-12T18:53:39.942Z,1.57
2022-09-12T18:56:08.684Z,1.60
2022-09-12T18:58:36.464Z,2.37
2022-09-12T19:01:14.171Z,2.53
2022-09-12T19:03:41.763Z,1.50
2022-09-12T19:06:17.411Z,1.73
2022-09-12T19:08:45.601Z,1.70
2022-09-12T19:11:13.457Z,1.70
2022-09-12T19:13:41.642Z,1.87
2022-09-12T19:16:10.005Z,1.60
2022-09-12T19:18:37.861Z,1.50
2022-09-12T19:21:05.954Z,1.77
2022-09-12T19:23:33.819Z,2.20
2022-09-12T19:26:02.072Z,1.70
2022-09-12T19:28:29.371Z,2.33
2022-09-12T19:30:57.093Z,2.03
2022-09-12T19:33:25.714Z,1.67
2022-09-12T19:35:53.254Z,1.90
2022-09-12T19:38:20.588Z,1.50
2022-09-12T19:40:56.789Z,1.40
2022-09-12T19:43:24.306Z,2.00
2022-09-12T19:45:54.792Z,1.57
2022-09-12T19:48:22.231Z,1.87
2022-09-12T19:50:49.592Z,1.70
2022-09-12T19:53:17.583Z,1.80
2022-09-12T19:55:45.467Z,2.20
2022-09-12T19:58:13.556Z,1.60
2022-09-12T20:00:40.987Z,2.23
2022-09-12T20:03:08.786Z,2.00
2022-09-12T20:05:39.600Z,1.80
2022-09-12T20:08:09.942Z,1.77
2022-09-12T20:10:37.353Z,1.77
2022-09-12T20:13:05.092Z,1.63
2022-09-12T20:15:32.427Z,1.40
2022-09-12T20:17:59.797Z,2.70
2022-09-12T20:20:27.199Z,1.97
2022-09-12T20:22:54.546Z,2.13
2022-09-12T20:25:21.871Z,1.53
2022-09-12T20:27:49.299Z,1.40
2022-09-12T20:30:16.649Z,1.73
2022-09-12T20:32:44.183Z,1.70
2022-09-12T20:35:11.518Z,1.60
2022-09-12T20:37:40.685Z,1.67
2022-09-12T20:40:08.649Z,1.70
2022-09-12T20:42:36.059Z,1.73
2022-09-12T20:45:04.338Z,1.70
2022-09-12T20:47:31.762Z,1.70
2022-09-12T20:49:59.080Z,1.87
2022-09-12T20:52:26.381Z,1.53
2022-09-12T20:54:53.773Z,2.03
2022-09-12T20:57:21.040Z,1.40
2022-09-12T20:59:48.315Z,1.63
2022-09-12T21:02:16.312Z,1.63
2022-09-12T21:04:43.714Z,1.50
2022-09-12T21:07:11.124Z,2.07
2022-09-12T21:09:38.614Z,1.60
2022-09-12T21:12:05.927Z,1.53
2022-09-12T21:14:33.197Z,1.77
2022-09-12T21:17:00.499Z,1.70
2022-09-12T21:19:27.781Z,1.70
2022-09-12T21:21:55.127Z,3.63
2022-09-12T21:24:23.257Z,2.97
2022-09-12T21:26:50.587Z,1.67
2022-09-12T21:29:17.837Z,2.40
2022-09-12T21:31:45.215Z,1.70
2022-09-12T21:34:12.845Z,2.03
2022-09-12T21:36:40.091Z,1.73
2022-09-12T21:39:07.392Z,2.43
2022-09-12T21:41:34.872Z,1.60
2022-09-12T21:44:02.333Z,1.63
2022-09-12T21:46:29.653Z,1.90
2022-09-12T21:48:56.920Z,1.63
2022-09-12T21:51:24.184Z,1.80
2022-09-12T21:53:51.476Z,1.70
2022-09-12T21:56:18.790Z,1.50
2022-09-12T21:58:46.060Z,1.40
2022-09-12T22:01:13.422Z,1.47
2022-09-12T22:03:43.062Z,1.73
2022-09-12T22:06:10.379Z,1.97
2022-09-12T22:08:38.780Z,1.80
2022-09-12T22:11:09.179Z,1.60
2022-09-12T22:13:42.653Z,1.70
2022-09-12T22:16:10.422Z,1.40
2022-09-12T22:18:38.127Z,1.73
2022-09-12T22:21:06.787Z,1.87
2022-09-12T22:23:53.090Z,2.30
2022-09-12T22:26:20.462Z,1.50
2022-09-12T22:28:47.842Z,2.10
2022-09-12T22:31:15.670Z,1.90
2022-09-12T22:33:43.292Z,1.70
2022-09-12T22:36:10.574Z,1.97
2022-09-12T22:38:38.177Z,2.13
2022-09-12T22:41:06.255Z,1.90
2022-09-12T22:43:34.215Z,3.30
2022-09-12T22:46:01.731Z,1.60
2022-09-12T22:48:29.217Z,2.00
2022-09-12T22:50:56.495Z,1.67
2022-09-12T22:53:23.860Z,1.97
2022-09-12T22:55:51.262Z,1.67
2022-09-12T22:58:18.542Z,1.50
2022-09-12T23:00:52.338Z,1.53
2022-09-12T23:03:20.619Z,1.60
2022-09-12T23:05:48.452Z,1.70
2022-09-12T23:08:19.362Z,1.80
2022-09-12T23:10:46.770Z,1.73
2022-09-12T23:13:14.095Z,1.93
2022-09-12T23:15:41.382Z,1.50
2022-09-12T23:18:08.666Z,1.90
2022-09-12T23:20:35.969Z,1.53
2022-09-12T23:23:03.218Z,1.60
2022-09-12T23:25:30.933Z,1.47
2022-09-12T23:27:58.598Z,2.33
2022-09-12T23:30:25.894Z,1.73
2022-09-12T23:32:53.167Z,2.13
2022-09-12T23:35:20.501Z,2.10
2022-09-12T23:37:48.266Z,1.80
2022-09-12T23:40:15.702Z,1.77
2022-09-12T23:42:43.038Z,1.57
2022-09-12T23:45:10.504Z,1.57
2022-09-12T23:47:37.854Z,1.63
2022-09-12T23:50:05.323Z,2.00
2022-09-12T23:52:32.627Z,1.80
2022-09-12T23:55:00.002Z,1.73
2022-09-12T23:57:27.704Z,2.77
2022-09-12T23:59:54.982Z,2.27
